createdAt,value
2023-03-31T00:00:26.666Z,8.05
2023-03-31T00:01:00.997Z,8.06
2023-03-31T00:01:36.783Z,8.03
2023-03-31T00:02:13.972Z,8.04
2023-03-31T00:02:47.716Z,8.06
2023-03-31T00:03:22.922Z,8.12
2023-03-31T00:04:03.913Z,8.16
2023-03-31T00:04:36.353Z,8.19
2023-03-31T00:05:09.956Z,8.22
2023-03-31T00:05:48.324Z,8.24
2023-03-31T00:06:20.543Z,8.23
2023-03-31T00:06:56.639Z,8.22
2023-03-31T00:07:28.854Z,8.19
2023-03-31T00:08:02.071Z,8.19
2023-03-31T00:08:40.493Z,8.16
2023-03-31T00:09:16.122Z,8.12
2023-03-31T00:09:48.767Z,8.10
2023-03-31T00:10:23.841Z,8.12
2023-03-31T00:11:00.190Z,8.16
2023-03-31T00:11:32.388Z,8.15
2023-03-31T00:12:07.593Z,8.17
2023-03-31T00:12:39.763Z,8.18
2023-03-31T00:13:12.136Z,8.19
2023-03-31T00:13:46.897Z,8.22
2023-03-31T00:14:20.957Z,8.23
2023-03-31T00:14:53.578Z,8.24
2023-03-31T00:15:26.312Z,8.27
2023-03-31T00:16:02.013Z,8.28
2023-03-31T00:16:34.531Z,8.34
2023-03-31T00:17:09.648Z,8.42
2023-03-31T00:17:43.708Z,8.47
2023-03-31T00:18:16.269Z,8.53
2023-03-31T00:18:53.627Z,8.57
2023-03-31T00:19:25.814Z,8.56
2023-03-31T00:20:00.529Z,8.57
2023-03-31T00:20:38.304Z,8.54
2023-03-31T00:21:14.834Z,8.57
2023-03-31T00:21:48.479Z,8.61
2023-03-31T00:22:27.788Z,8.65
2023-03-31T00:23:01.927Z,8.66
2023-03-31T00:23:34.309Z,8.70
2023-03-31T00:24:12.772Z,8.73
2023-03-31T00:24:45.119Z,8.72
2023-03-31T00:25:17.528Z,8.73
2023-03-31T00:25:52.319Z,8.74
2023-03-31T00:26:26.460Z,8.78
2023-03-31T00:27:01.524Z,8.83
2023-03-31T00:27:33.684Z,8.86
2023-03-31T00:28:05.967Z,8.90
2023-03-31T00:28:40.751Z,8.93
2023-03-31T00:29:14.346Z,8.93
2023-03-31T00:29:47.501Z,8.92
2023-03-31T00:30:22.929Z,8.88
2023-03-31T00:31:01.218Z,8.89
2023-03-31T00:31:34.689Z,8.87
2023-03-31T00:32:09.585Z,8.86
2023-03-31T00:32:42.052Z,8.86
2023-03-31T00:33:14.586Z,8.84
2023-03-31T00:33:53.154Z,8.86
2023-03-31T00:34:25.430Z,8.86
2023-03-31T00:34:58.043Z,8.86
2023-03-31T00:35:30.242Z,8.86
2023-03-31T00:36:06.761Z,8.86
2023-03-31T00:36:46.056Z,8.88
2023-03-31T00:37:18.314Z,8.89
2023-03-31T00:37:54.028Z,8.88
2023-03-31T00:38:29.247Z,8.88
2023-03-31T00:39:08.956Z,8.87
2023-03-31T00:39:41.632Z,8.84
2023-03-31T00:40:14.157Z,8.83
2023-03-31T00:40:47.493Z,8.83
2023-03-31T00:41:22.720Z,8.80
2023-03-31T00:41:54.895Z,8.78
2023-03-31T00:42:30.518Z,8.75
2023-03-31T00:43:03.544Z,8.72
2023-03-31T00:43:38.193Z,8.74
2023-03-31T00:44:19.287Z,8.71
2023-03-31T00:45:24.666Z,8.69
2023-03-31T00:46:07.951Z,8.69
2023-03-31T00:46:47.304Z,8.72
2023-03-31T00:47:21.271Z,8.74
2023-03-31T00:47:58.506Z,8.78
2023-03-31T00:48:31.875Z,8.78
2023-03-31T00:49:16.588Z,8.79
2023-03-31T00:49:51.918Z,8.75
2023-03-31T00:50:29.224Z,8.76
2023-03-31T00:51:08.445Z,8.73
2023-03-31T00:51:41.052Z,8.70
2023-03-31T00:52:18.160Z,8.71
2023-03-31T00:52:58.435Z,8.69
2023-03-31T00:53:33.766Z,8.66
2023-03-31T00:54:08.677Z,8.66
2023-03-31T00:54:45.396Z,8.66
2023-03-31T00:55:22.759Z,8.65
2023-03-31T00:55:59.502Z,8.65
2023-03-31T00:56:40.205Z,8.65
2023-03-31T00:57:13.185Z,8.63
2023-03-31T00:57:47.179Z,8.64
2023-03-31T00:58:28.357Z,8.63
2023-03-31T00:59:07.946Z,8.62
2023-03-31T00:59:47.525Z,8.62
2023-03-31T01:00:20.391Z,8.60
2023-03-31T01:00:53.224Z,8.60
2023-03-31T01:01:26.769Z,8.60
2023-03-31T01:02:03.633Z,8.60
2023-03-31T01:02:41.653Z,8.59
2023-03-31T01:03:14.375Z,8.58
2023-03-31T01:03:50.747Z,8.58
2023-03-31T01:04:26.635Z,8.61
2023-03-31T01:05:02.581Z,8.64
2023-03-31T01:05:41.328Z,8.65
2023-03-31T01:06:15.410Z,8.66
2023-03-31T01:06:57.584Z,8.69
2023-03-31T01:07:41.016Z,8.68
2023-03-31T01:08:15.195Z,8.67
2023-03-31T01:08:50.188Z,8.69
2023-03-31T01:09:25.173Z,8.68
2023-03-31T01:10:00.413Z,8.71
2023-03-31T01:10:41.870Z,8.78
2023-03-31T01:11:19.980Z,8.82
2023-03-31T01:11:53.581Z,8.84
2023-03-31T01:12:27.009Z,8.84
2023-03-31T01:13:02.098Z,8.86
2023-03-31T01:13:37.723Z,8.84
2023-03-31T01:14:10.739Z,8.86
2023-03-31T01:14:45.559Z,8.87
2023-03-31T01:15:18.322Z,8.87
2023-03-31T01:15:50.781Z,8.87
2023-03-31T01:16:26.300Z,8.87
2023-03-31T01:16:59.370Z,8.85
2023-03-31T01:17:32.114Z,8.84
2023-03-31T01:18:10.203Z,8.83
2023-03-31T01:18:46.711Z,8.81
2023-03-31T01:19:28.956Z,8.81
2023-03-31T01:20:15.957Z,8.80
2023-03-31T01:21:26.160Z,8.78
2023-03-31T01:22:38.048Z,8.71
2023-03-31T01:23:31.860Z,8.72
2023-03-31T01:24:47.600Z,8.72
2023-03-31T01:25:50.445Z,8.73
2023-03-31T01:26:45.977Z,8.70
2023-03-31T01:27:49.307Z,8.71
2023-03-31T01:28:34.936Z,8.65
2023-03-31T01:29:19.598Z,8.65
2023-03-31T01:30:17.145Z,8.61
2023-03-31T01:31:13.986Z,8.57
2023-03-31T01:32:16.521Z,8.54
2023-03-31T01:33:15.768Z,8.49
2023-03-31T01:34:20.774Z,8.46
2023-03-31T01:35:22.791Z,8.49
2023-03-31T01:36:13.028Z,8.49
2023-03-31T01:37:24.032Z,8.48
2023-03-31T01:38:07.507Z,8.43
2023-03-31T01:39:16.787Z,8.46
2023-03-31T01:40:16.539Z,8.44
2023-03-31T01:41:04.301Z,8.41
2023-03-31T01:41:47.364Z,8.44
2023-03-31T01:42:24.294Z,8.49
2023-03-31T01:43:04.369Z,8.52
2023-03-31T01:43:44.057Z,8.53
2023-03-31T01:44:24.575Z,8.53
2023-03-31T01:45:06.548Z,8.51
2023-03-31T01:45:51.915Z,8.50
2023-03-31T01:46:34.524Z,8.50
2023-03-31T01:47:14.618Z,8.51
2023-03-31T01:47:52.499Z,8.52
2023-03-31T01:48:42.190Z,8.51
2023-03-31T01:49:23.199Z,8.50
2023-03-31T01:50:05.075Z,8.47
2023-03-31T01:50:46.936Z,8.45
2023-03-31T01:51:27.769Z,8.44
2023-03-31T01:52:07.790Z,8.42
2023-03-31T01:52:46.237Z,8.39
2023-03-31T01:53:26.307Z,8.39
2023-03-31T01:54:03.940Z,8.37
2023-03-31T01:54:44.284Z,8.40
2023-03-31T01:55:25.789Z,8.46
2023-03-31T01:56:06.166Z,8.51
2023-03-31T01:56:44.056Z,8.58
2023-03-31T01:57:20.682Z,8.61
2023-03-31T01:57:58.447Z,8.63
2023-03-31T01:58:39.208Z,8.63
2023-03-31T01:59:14.985Z,8.61
2023-03-31T01:59:55.763Z,8.60
2023-03-31T02:00:33.566Z,8.57
2023-03-31T02:01:13.779Z,8.53
2023-03-31T02:01:55.608Z,8.49
2023-03-31T02:02:31.664Z,8.45
2023-03-31T02:03:10.996Z,8.47
2023-03-31T02:03:50.969Z,8.46
2023-03-31T02:04:26.705Z,8.49
2023-03-31T02:05:03.365Z,8.52
2023-03-31T02:05:44.838Z,8.56
2023-03-31T02:06:22.203Z,8.58
2023-03-31T02:06:58.474Z,8.63
2023-03-31T02:07:38.063Z,8.66
2023-03-31T02:08:13.774Z,8.68
2023-03-31T02:08:52.683Z,8.71
2023-03-31T02:09:32.351Z,8.72
2023-03-31T02:10:08.655Z,8.72
2023-03-31T02:10:46.077Z,8.71
2023-03-31T02:11:21.353Z,8.73
2023-03-31T02:11:56.403Z,8.72
2023-03-31T02:12:36.111Z,8.72
2023-03-31T02:13:11.891Z,8.68
2023-03-31T02:13:54.204Z,8.67
2023-03-31T02:14:31.317Z,8.63
2023-03-31T02:15:07.922Z,8.61
2023-03-31T02:15:49.849Z,8.63
2023-03-31T02:16:26.876Z,8.65
2023-03-31T02:17:02.498Z,8.62
2023-03-31T02:17:40.678Z,8.62
2023-03-31T02:18:18.936Z,8.62
2023-03-31T02:19:02.805Z,8.62
2023-03-31T02:19:39.869Z,8.60
2023-03-31T02:20:17.198Z,8.61
2023-03-31T02:20:52.306Z,8.62
2023-03-31T02:21:24.628Z,8.63
2023-03-31T02:21:59.632Z,8.64
2023-03-31T02:22:36.933Z,8.62
2023-03-31T02:23:15.629Z,8.60
2023-03-31T02:23:51.044Z,8.59
2023-03-31T02:24:26.807Z,8.60
2023-03-31T02:25:05.130Z,8.60
2023-03-31T02:25:42.545Z,8.58
2023-03-31T02:26:24.551Z,8.62
2023-03-31T02:27:14.033Z,8.60
2023-03-31T02:27:51.945Z,8.60
2023-03-31T02:28:26.932Z,8.62
2023-03-31T02:29:01.967Z,8.65
2023-03-31T02:29:35.124Z,8.65
2023-03-31T02:30:09.185Z,8.68
2023-03-31T02:30:51.044Z,8.65
2023-03-31T02:31:29.508Z,8.65
2023-03-31T02:32:08.251Z,8.68
2023-03-31T02:32:46.884Z,8.68
2023-03-31T02:33:20.138Z,8.69
2023-03-31T02:33:52.584Z,8.75
2023-03-31T02:34:27.351Z,8.83
2023-03-31T02:35:01.206Z,8.86
2023-03-31T02:35:35.205Z,8.87
2023-03-31T02:36:10.934Z,8.88
2023-03-31T02:36:45.926Z,8.84
2023-03-31T02:37:21.213Z,8.81
2023-03-31T02:37:58.997Z,8.83
2023-03-31T02:38:36.789Z,8.83
2023-03-31T02:39:17.184Z,8.83
2023-03-31T02:39:52.964Z,8.84
2023-03-31T02:40:27.869Z,8.83
2023-03-31T02:41:02.863Z,8.82
2023-03-31T02:41:38.227Z,8.80
2023-03-31T02:42:11.372Z,8.75
2023-03-31T02:42:46.568Z,8.74
2023-03-31T02:43:18.972Z,8.72
2023-03-31T02:43:53.738Z,8.68
2023-03-31T02:44:28.839Z,8.64
2023-03-31T02:45:03.578Z,8.64
2023-03-31T02:45:47.265Z,8.62
2023-03-31T02:46:19.855Z,8.60
2023-03-31T02:46:52.643Z,8.59
2023-03-31T02:47:27.567Z,8.60
2023-03-31T02:47:59.901Z,8.60
2023-03-31T02:48:36.728Z,8.61
2023-03-31T02:49:14.474Z,8.61
2023-03-31T02:49:50.200Z,8.61
2023-03-31T02:50:33.287Z,8.60
2023-03-31T02:51:40.971Z,8.52
2023-03-31T02:52:45.089Z,8.47
2023-03-31T02:53:29.140Z,8.47
2023-03-31T02:54:25.570Z,8.45
2023-03-31T02:55:21.427Z,8.42
2023-03-31T02:56:08.810Z,8.43
2023-03-31T02:57:07.372Z,8.41
2023-03-31T02:58:14.979Z,8.40
2023-03-31T02:59:17.089Z,8.36
2023-03-31T03:00:04.950Z,8.34
2023-03-31T03:00:59.002Z,8.34
2023-03-31T03:01:50.931Z,8.34
2023-03-31T03:02:36.136Z,8.35
2023-03-31T03:03:20.613Z,8.33
2023-03-31T03:04:02.736Z,8.36
2023-03-31T03:04:53.480Z,8.36
2023-03-31T03:05:36.745Z,8.32
2023-03-31T03:06:44.585Z,8.28
2023-03-31T03:07:30.306Z,8.25
2023-03-31T03:08:13.587Z,8.25
2023-03-31T03:09:05.316Z,8.23
2023-03-31T03:09:49.665Z,8.22
2023-03-31T03:10:37.598Z,8.25
2023-03-31T03:11:18.604Z,8.25
2023-03-31T03:12:08.906Z,8.30
2023-03-31T03:12:45.640Z,8.34
2023-03-31T03:13:24.812Z,8.37
2023-03-31T03:14:06.327Z,8.40
2023-03-31T03:14:48.362Z,8.42
2023-03-31T03:15:29.193Z,8.49
2023-03-31T03:16:06.668Z,8.55
2023-03-31T03:16:46.420Z,8.61
2023-03-31T03:17:25.173Z,8.61
2023-03-31T03:17:58.871Z,8.60
2023-03-31T03:18:34.324Z,8.59
2023-03-31T03:19:07.847Z,8.58
2023-03-31T03:19:41.792Z,8.56
2023-03-31T03:20:18.042Z,8.54
2023-03-31T03:20:51.171Z,8.53
2023-03-31T03:21:23.452Z,8.52
2023-03-31T03:21:58.848Z,8.50
2023-03-31T03:22:31.200Z,8.50
2023-03-31T03:23:03.463Z,8.52
2023-03-31T03:23:38.401Z,8.49
2023-03-31T03:24:10.716Z,8.47
2023-03-31T03:24:42.983Z,8.47
2023-03-31T03:25:20.597Z,8.48
2023-03-31T03:25:52.818Z,8.48
2023-03-31T03:26:28.338Z,8.47
2023-03-31T03:27:03.111Z,8.49
2023-03-31T03:27:38.048Z,8.47
2023-03-31T03:28:10.707Z,8.47
2023-03-31T03:28:43.683Z,8.46
2023-03-31T03:29:18.479Z,8.46
2023-03-31T03:29:51.300Z,8.46
2023-03-31T03:30:23.527Z,8.45
2023-03-31T03:30:58.375Z,8.46
2023-03-31T03:31:31.023Z,8.47
2023-03-31T03:32:03.248Z,8.46
2023-03-31T03:32:38.523Z,8.48
2023-03-31T03:33:17.363Z,8.45
2023-03-31T03:33:50.033Z,8.43
2023-03-31T03:34:25.802Z,8.41
2023-03-31T03:34:57.972Z,8.44
2023-03-31T03:35:30.115Z,8.44
2023-03-31T03:36:05.157Z,8.42
2023-03-31T03:36:40.461Z,8.40
2023-03-31T03:37:12.650Z,8.41
2023-03-31T03:37:44.889Z,8.39
2023-03-31T03:38:19.789Z,8.39
2023-03-31T03:38:52.108Z,8.39
2023-03-31T03:39:24.299Z,8.36
2023-03-31T03:39:59.051Z,8.39
2023-03-31T03:40:31.255Z,8.39
2023-03-31T03:41:03.571Z,8.40
2023-03-31T03:41:39.632Z,8.39
2023-03-31T03:42:14.478Z,8.38
2023-03-31T03:42:46.674Z,8.40
2023-03-31T03:43:21.453Z,8.42
2023-03-31T03:43:53.620Z,8.44
2023-03-31T03:44:26.039Z,8.44
2023-03-31T03:45:01.537Z,8.44
2023-03-31T03:45:35.288Z,8.42
2023-03-31T03:46:07.788Z,8.44
2023-03-31T03:46:42.745Z,8.43
2023-03-31T03:47:15.315Z,8.43
2023-03-31T03:47:47.537Z,8.43
2023-03-31T03:48:23.001Z,8.42
2023-03-31T03:48:56.026Z,8.42
2023-03-31T03:49:30.814Z,8.41
2023-03-31T03:50:03.165Z,8.38
2023-03-31T03:50:37.478Z,8.39
2023-03-31T03:51:12.308Z,8.37
2023-03-31T03:51:44.479Z,8.35
2023-03-31T03:52:19.574Z,8.35
2023-03-31T03:52:51.846Z,8.34
2023-03-31T03:53:23.994Z,8.34
2023-03-31T03:53:58.798Z,8.34
2023-03-31T03:54:31.109Z,8.34
2023-03-31T03:55:03.386Z,8.33
2023-03-31T03:55:38.196Z,8.32
2023-03-31T03:56:10.538Z,8.34
2023-03-31T03:56:42.840Z,8.34
2023-03-31T03:57:20.347Z,8.36
2023-03-31T03:57:52.544Z,8.35
2023-03-31T03:58:24.847Z,8.35
2023-03-31T03:58:59.663Z,8.38
2023-03-31T03:59:31.856Z,8.37
2023-03-31T04:00:10.485Z,8.38
2023-03-31T04:00:45.429Z,8.37
2023-03-31T04:01:18.351Z,8.35
2023-03-31T04:01:53.638Z,8.34
2023-03-31T04:02:28.897Z,8.35
2023-03-31T04:03:01.972Z,8.34
2023-03-31T04:03:36.759Z,8.34
2023-03-31T04:04:09.175Z,8.34
2023-03-31T04:04:41.455Z,8.33
2023-03-31T04:05:16.354Z,8.32
2023-03-31T04:05:50.098Z,8.32
2023-03-31T04:06:22.292Z,8.33
2023-03-31T04:06:57.103Z,8.33
2023-03-31T04:07:29.352Z,8.35
2023-03-31T04:08:01.579Z,8.36
2023-03-31T04:08:37.173Z,8.37
2023-03-31T04:09:09.380Z,8.36
2023-03-31T04:09:41.648Z,8.36
2023-03-31T04:10:16.529Z,8.37
2023-03-31T04:10:49.975Z,8.36
2023-03-31T04:11:22.506Z,8.37
2023-03-31T04:11:57.411Z,8.38
2023-03-31T04:12:34.466Z,8.38
2023-03-31T04:13:07.044Z,8.38
2023-03-31T04:13:41.813Z,8.37
2023-03-31T04:14:13.994Z,8.37
2023-03-31T04:14:46.221Z,8.36
2023-03-31T04:15:21.066Z,8.37
2023-03-31T04:15:53.340Z,8.37
2023-03-31T04:16:25.784Z,8.39
2023-03-31T04:17:00.698Z,8.41
2023-03-31T04:17:34.829Z,8.40
2023-03-31T04:18:07.253Z,8.41
2023-03-31T04:18:42.997Z,8.46
2023-03-31T04:19:19.470Z,8.48
2023-03-31T04:19:53.139Z,8.50
2023-03-31T04:20:28.039Z,8.50
2023-03-31T04:21:06.856Z,8.50
2023-03-31T04:21:45.636Z,8.48
2023-03-31T04:22:20.803Z,8.45
2023-03-31T04:22:52.982Z,8.43
2023-03-31T04:23:26.792Z,8.44
2023-03-31T04:24:01.912Z,8.42
2023-03-31T04:24:38.987Z,8.43
2023-03-31T04:25:16.745Z,8.45
2023-03-31T04:25:50.152Z,8.46
2023-03-31T04:26:31.092Z,8.45
2023-03-31T04:27:05.003Z,8.43
2023-03-31T04:27:46.798Z,8.40
2023-03-31T04:28:21.615Z,8.39
2023-03-31T04:28:53.788Z,8.40
2023-03-31T04:29:26.854Z,8.41
2023-03-31T04:30:01.721Z,8.41
2023-03-31T04:30:33.892Z,8.40
2023-03-31T04:31:06.512Z,8.40
2023-03-31T04:31:43.196Z,8.40
2023-03-31T04:32:21.796Z,8.37
2023-03-31T04:32:56.723Z,8.34
2023-03-31T04:33:34.307Z,8.34
2023-03-31T04:34:07.096Z,8.30
2023-03-31T04:34:46.725Z,8.30
2023-03-31T04:35:20.870Z,8.30
2023-03-31T04:35:53.235Z,8.30
2023-03-31T04:36:29.166Z,8.32
2023-03-31T04:37:03.107Z,8.33
2023-03-31T04:37:35.258Z,8.33
2023-03-31T04:38:10.201Z,8.34
2023-03-31T04:38:42.441Z,8.34
2023-03-31T04:39:16.144Z,8.36
2023-03-31T04:39:54.770Z,8.36
2023-03-31T04:40:26.964Z,8.37
2023-03-31T04:40:59.228Z,8.39
2023-03-31T04:41:34.076Z,8.38
2023-03-31T04:42:06.318Z,8.39
2023-03-31T04:42:41.265Z,8.39
2023-03-31T04:43:16.717Z,8.39
2023-03-31T04:43:49.005Z,8.38
2023-03-31T04:44:21.302Z,8.39
2023-03-31T04:44:56.066Z,8.41
2023-03-31T04:45:28.275Z,8.44
2023-03-31T04:46:00.505Z,8.43
2023-03-31T04:46:33.045Z,8.43
2023-03-31T04:47:08.002Z,8.41
2023-03-31T04:47:40.362Z,8.40
2023-03-31T04:48:13.068Z,8.39
2023-03-31T04:48:48.000Z,8.42
2023-03-31T04:49:20.628Z,8.43
2023-03-31T04:49:52.912Z,8.43
2023-03-31T04:50:28.653Z,8.44
2023-03-31T04:51:00.979Z,8.43
2023-03-31T04:51:36.073Z,8.42
2023-03-31T04:52:08.246Z,8.41
2023-03-31T04:52:40.964Z,8.40
2023-03-31T04:53:15.725Z,8.39
2023-03-31T04:53:47.922Z,8.39
2023-03-31T04:54:20.358Z,8.38
2023-03-31T04:54:55.114Z,8.37
2023-03-31T04:55:27.458Z,8.37
2023-03-31T04:55:59.735Z,8.36
2023-03-31T04:56:34.524Z,8.36
2023-03-31T04:57:06.785Z,8.36
2023-03-31T04:57:42.300Z,8.37
2023-03-31T04:58:17.088Z,8.37
2023-03-31T04:58:49.271Z,8.38
2023-03-31T04:59:21.465Z,8.39
2023-03-31T04:59:56.226Z,8.38
2023-03-31T05:00:29.172Z,8.38
2023-03-31T05:01:01.434Z,8.37
2023-03-31T05:01:36.718Z,8.38
2023-03-31T05:02:09.794Z,8.39
2023-03-31T05:02:44.757Z,8.40
2023-03-31T05:03:17.115Z,8.42
2023-03-31T05:03:49.586Z,8.42
2023-03-31T05:04:24.600Z,8.43
2023-03-31T05:04:56.784Z,8.43
2023-03-31T05:05:29.011Z,8.43
2023-03-31T05:06:04.161Z,8.43
2023-03-31T05:06:36.892Z,8.42
2023-03-31T05:07:09.078Z,8.42
2023-03-31T05:07:43.915Z,8.40
2023-03-31T05:08:16.209Z,8.39
2023-03-31T05:08:48.477Z,8.39
2023-03-31T05:09:23.498Z,8.39
2023-03-31T05:09:55.807Z,8.38
2023-03-31T05:10:28.033Z,8.37
2023-03-31T05:11:02.816Z,8.39
2023-03-31T05:11:35.002Z,8.40
2023-03-31T05:12:07.873Z,8.40
2023-03-31T05:12:45.231Z,8.42
2023-03-31T05:13:17.541Z,8.43
2023-03-31T05:13:49.700Z,8.42
2023-03-31T05:14:24.493Z,8.43
2023-03-31T05:14:56.847Z,8.41
2023-03-31T05:15:32.894Z,8.43
2023-03-31T05:16:08.435Z,8.40
2023-03-31T05:16:42.229Z,8.40
2023-03-31T05:17:18.040Z,8.39
2023-03-31T05:17:51.023Z,8.37
2023-03-31T05:18:23.196Z,8.38
2023-03-31T05:18:57.958Z,8.38
2023-03-31T05:19:30.228Z,8.39
2023-03-31T05:20:06.276Z,8.39
2023-03-31T05:20:41.332Z,8.39
2023-03-31T05:21:15.752Z,8.40
2023-03-31T05:21:50.626Z,8.40
2023-03-31T05:22:22.840Z,8.42
2023-03-31T05:22:55.008Z,8.42
2023-03-31T05:23:30.346Z,8.43
2023-03-31T05:24:02.518Z,8.42
2023-03-31T05:24:34.961Z,8.43
2023-03-31T05:25:12.048Z,8.42
2023-03-31T05:25:44.247Z,8.39
2023-03-31T05:26:16.581Z,8.39
2023-03-31T05:26:52.937Z,8.37
2023-03-31T05:27:27.880Z,8.35
2023-03-31T05:28:02.907Z,8.32
2023-03-31T05:28:35.347Z,8.31
2023-03-31T05:29:10.455Z,8.29
2023-03-31T05:29:42.637Z,8.26
2023-03-31T05:30:18.580Z,8.22
2023-03-31T05:30:50.866Z,8.20
2023-03-31T05:31:23.613Z,8.20
2023-03-31T05:31:58.529Z,8.21
2023-03-31T05:32:30.845Z,8.24
2023-03-31T05:33:03.087Z,8.25
2023-03-31T05:33:40.549Z,8.29
2023-03-31T05:34:12.842Z,8.28
2023-03-31T05:34:49.336Z,8.28
2023-03-31T05:35:23.150Z,8.31
2023-03-31T05:35:57.956Z,8.34
2023-03-31T05:36:30.219Z,8.33
2023-03-31T05:37:02.442Z,8.30
2023-03-31T05:37:37.353Z,8.30
2023-03-31T05:38:09.539Z,8.30
2023-03-31T05:38:42.038Z,8.28
2023-03-31T05:39:17.300Z,8.31
2023-03-31T05:39:49.564Z,8.30
2023-03-31T05:40:21.865Z,8.27
2023-03-31T05:40:56.608Z,8.35
2023-03-31T05:41:28.993Z,8.37
2023-03-31T05:42:01.345Z,8.35
2023-03-31T05:42:36.374Z,8.36
2023-03-31T05:43:11.256Z,8.36
2023-03-31T05:43:44.036Z,8.34
2023-03-31T05:44:20.965Z,8.33
2023-03-31T05:44:53.400Z,8.30
2023-03-31T05:45:25.627Z,8.30
2023-03-31T05:46:00.483Z,8.26
2023-03-31T05:46:32.849Z,8.24
2023-03-31T05:47:05.227Z,8.24
2023-03-31T05:47:40.069Z,8.25
2023-03-31T05:48:12.400Z,8.26
2023-03-31T05:48:45.128Z,8.28
2023-03-31T05:49:20.165Z,8.29
2023-03-31T05:49:52.421Z,8.30
2023-03-31T05:50:24.624Z,8.30
2023-03-31T05:51:01.032Z,8.32
2023-03-31T05:51:33.442Z,8.34
2023-03-31T05:52:06.689Z,8.37
2023-03-31T05:52:41.473Z,8.39
2023-03-31T05:53:13.917Z,8.41
2023-03-31T05:53:48.817Z,8.42
2023-03-31T05:54:21.134Z,8.42
2023-03-31T05:54:55.941Z,8.42
2023-03-31T05:55:28.133Z,8.42
2023-03-31T05:56:02.209Z,8.45
2023-03-31T05:56:37.105Z,8.48
2023-03-31T05:57:10.227Z,8.50
2023-03-31T05:57:42.464Z,8.51
2023-03-31T05:58:19.856Z,8.52
2023-03-31T05:58:52.617Z,8.52
2023-03-31T05:59:24.938Z,8.53
2023-03-31T05:59:59.747Z,8.62
2023-03-31T06:00:32.257Z,8.69
2023-03-31T06:01:06.899Z,8.76
2023-03-31T06:01:42.057Z,8.80
2023-03-31T06:02:14.715Z,8.82
2023-03-31T06:02:47.207Z,8.85
2023-03-31T06:03:22.543Z,8.85
2023-03-31T06:03:54.731Z,8.85
2023-03-31T06:04:29.693Z,8.85
2023-03-31T06:05:01.903Z,8.86
2023-03-31T06:05:35.070Z,8.87
2023-03-31T06:06:13.318Z,8.88
2023-03-31T06:06:46.328Z,8.87
2023-03-31T06:07:18.664Z,8.93
2023-03-31T06:07:53.718Z,8.97
2023-03-31T06:08:26.138Z,8.99
2023-03-31T06:09:01.020Z,9.01
2023-03-31T06:09:33.215Z,8.99
2023-03-31T06:10:08.482Z,8.97
2023-03-31T06:10:43.272Z,8.94
2023-03-31T06:11:17.393Z,8.93
2023-03-31T06:11:52.159Z,8.92
2023-03-31T06:12:24.365Z,8.93
2023-03-31T06:12:56.572Z,8.92
2023-03-31T06:13:33.919Z,8.93
2023-03-31T06:14:06.279Z,8.92
2023-03-31T06:14:41.046Z,8.93
2023-03-31T06:15:13.296Z,8.93
2023-03-31T06:15:57.097Z,8.91
2023-03-31T06:16:29.619Z,8.89
2023-03-31T06:17:04.543Z,8.90
2023-03-31T06:17:38.508Z,8.90
2023-03-31T06:18:11.441Z,8.90
2023-03-31T06:18:46.588Z,8.91
2023-03-31T06:19:19.206Z,8.90
2023-03-31T06:19:51.600Z,8.88
2023-03-31T06:20:28.552Z,8.88
2023-03-31T06:21:01.237Z,8.88
2023-03-31T06:21:34.032Z,8.90
2023-03-31T06:22:08.814Z,8.91
2023-03-31T06:22:41.053Z,8.94
2023-03-31T06:23:13.250Z,8.97
2023-03-31T06:23:48.735Z,8.98
2023-03-31T06:24:20.992Z,9.00
2023-03-31T06:24:53.215Z,8.98
2023-03-31T06:25:32.386Z,8.97
2023-03-31T06:26:09.526Z,8.90
2023-03-31T06:26:42.332Z,8.89
2023-03-31T06:27:17.253Z,8.86
2023-03-31T06:27:49.434Z,8.85
2023-03-31T06:28:22.223Z,8.85
2023-03-31T06:28:59.605Z,8.82
2023-03-31T06:29:31.830Z,8.77
2023-03-31T06:30:05.002Z,8.75
2023-03-31T06:30:39.837Z,8.74
2023-03-31T06:31:13.942Z,8.72
2023-03-31T06:31:48.808Z,8.70
2023-03-31T06:32:21.746Z,8.66
2023-03-31T06:32:56.625Z,8.63
2023-03-31T06:33:28.931Z,8.59
2023-03-31T06:34:01.274Z,8.57
2023-03-31T06:34:36.092Z,8.54
2023-03-31T06:35:09.293Z,8.51
2023-03-31T06:35:42.003Z,8.51
2023-03-31T06:36:19.030Z,8.45
2023-03-31T06:36:51.401Z,8.40
2023-03-31T06:37:23.597Z,8.37
2023-03-31T06:37:58.356Z,8.34
2023-03-31T06:38:32.864Z,8.29
2023-03-31T06:39:07.731Z,8.27
2023-03-31T06:39:39.988Z,8.23
2023-03-31T06:40:13.083Z,8.19
2023-03-31T06:40:47.818Z,8.15
2023-03-31T06:41:21.139Z,8.12
2023-03-31T06:41:55.894Z,8.10
2023-03-31T06:42:32.780Z,8.06
2023-03-31T06:43:05.101Z,8.03
2023-03-31T06:43:40.075Z,8.00
2023-03-31T06:44:16.833Z,7.98
2023-03-31T06:44:51.607Z,7.97
2023-03-31T06:45:23.903Z,7.95
2023-03-31T06:45:59.291Z,7.94
2023-03-31T06:46:31.859Z,7.96
2023-03-31T06:47:06.892Z,7.96
2023-03-31T06:47:39.276Z,7.96
2023-03-31T06:48:11.655Z,7.98
2023-03-31T06:48:46.542Z,8.01
2023-03-31T06:49:18.959Z,8.03
2023-03-31T06:49:53.724Z,8.06
2023-03-31T06:50:25.962Z,8.04
2023-03-31T06:51:01.465Z,8.06
2023-03-31T06:51:36.307Z,8.08
2023-03-31T06:52:08.539Z,8.07
2023-03-31T06:52:41.369Z,8.08
2023-03-31T06:53:16.151Z,8.04
2023-03-31T06:53:48.506Z,8.03
2023-03-31T06:54:20.837Z,8.02
2023-03-31T06:54:55.605Z,8.00
2023-03-31T06:55:27.870Z,8.00
2023-03-31T06:56:00.718Z,8.00
2023-03-31T06:56:35.758Z,7.97
2023-03-31T06:57:08.112Z,7.97
2023-03-31T06:57:41.546Z,7.99
2023-03-31T06:58:16.452Z,8.00
2023-03-31T06:58:48.731Z,8.04
2023-03-31T06:59:26.448Z,8.08
2023-03-31T06:59:58.616Z,8.12
2023-03-31T07:00:32.947Z,8.18
2023-03-31T07:01:09.101Z,8.24
2023-03-31T07:01:42.868Z,8.33
2023-03-31T07:02:18.049Z,8.38
2023-03-31T07:02:50.339Z,8.45
2023-03-31T07:03:22.943Z,8.51
2023-03-31T07:03:57.859Z,8.56
2023-03-31T07:04:30.097Z,8.62
2023-03-31T07:05:02.383Z,8.67
2023-03-31T07:05:37.341Z,8.67
2023-03-31T07:06:09.544Z,8.65
2023-03-31T07:06:44.430Z,8.68
2023-03-31T07:07:16.839Z,8.68
2023-03-31T07:07:49.165Z,8.70
2023-03-31T07:08:24.499Z,8.75
2023-03-31T07:08:57.715Z,8.80
2023-03-31T07:09:32.512Z,8.85
2023-03-31T07:10:05.544Z,8.93
2023-03-31T07:10:37.852Z,8.99
2023-03-31T07:11:12.792Z,9.06
2023-03-31T07:11:45.196Z,9.12
2023-03-31T07:12:17.539Z,9.17
2023-03-31T07:12:52.503Z,9.18
2023-03-31T07:13:25.744Z,9.18
2023-03-31T07:14:00.607Z,9.18
2023-03-31T07:14:35.780Z,9.15
2023-03-31T07:15:11.773Z,9.11
2023-03-31T07:15:44.651Z,9.10
2023-03-31T07:16:17.015Z,9.09
2023-03-31T07:16:52.026Z,9.08
2023-03-31T07:17:25.671Z,9.07
2023-03-31T07:18:02.286Z,9.08
2023-03-31T07:18:41.246Z,9.08
2023-03-31T07:19:15.636Z,9.08
2023-03-31T07:19:48.341Z,9.11
2023-03-31T07:20:23.421Z,9.09
2023-03-31T07:20:55.789Z,9.06
2023-03-31T07:21:30.565Z,9.05
2023-03-31T07:22:03.155Z,9.04
2023-03-31T07:22:35.529Z,9.06
2023-03-31T07:23:10.852Z,9.11
2023-03-31T07:23:43.058Z,9.12
2023-03-31T07:24:15.410Z,9.13
2023-03-31T07:24:50.471Z,9.14
2023-03-31T07:25:22.699Z,9.13
2023-03-31T07:25:54.938Z,9.11
2023-03-31T07:26:29.797Z,9.12
2023-03-31T07:27:02.008Z,9.13
2023-03-31T07:27:34.535Z,9.17
2023-03-31T07:28:09.430Z,9.21
2023-03-31T07:28:41.802Z,9.23
2023-03-31T07:29:16.567Z,9.26
2023-03-31T07:29:51.674Z,9.29
2023-03-31T07:30:24.816Z,9.33
2023-03-31T07:30:59.624Z,9.37
2023-03-31T07:31:31.899Z,9.43
2023-03-31T07:32:04.641Z,9.48
2023-03-31T07:32:41.318Z,9.52
2023-03-31T07:33:13.659Z,9.57
2023-03-31T07:33:48.522Z,9.61
2023-03-31T07:34:21.016Z,9.64
2023-03-31T07:34:53.313Z,9.65
2023-03-31T07:35:28.440Z,9.64
2023-03-31T07:36:11.789Z,9.62
2023-03-31T07:36:48.519Z,9.62
2023-03-31T07:37:20.718Z,9.63
2023-03-31T07:37:52.978Z,9.65
2023-03-31T07:38:27.773Z,9.67
2023-03-31T07:39:00.128Z,9.67
2023-03-31T07:39:34.886Z,9.69
2023-03-31T07:40:09.152Z,9.63
2023-03-31T07:40:53.082Z,9.65
2023-03-31T07:41:31.010Z,9.63
2023-03-31T07:42:06.085Z,9.63
2023-03-31T07:42:38.265Z,9.63
2023-03-31T07:43:13.053Z,9.65
2023-03-31T07:43:45.808Z,9.57
2023-03-31T07:44:22.028Z,9.56
2023-03-31T07:44:58.030Z,9.50
2023-03-31T07:45:32.982Z,9.45
2023-03-31T07:46:05.918Z,9.39
2023-03-31T07:46:38.498Z,9.37
2023-03-31T07:47:13.513Z,9.36
2023-03-31T07:47:46.659Z,9.36
2023-03-31T07:48:18.862Z,9.35
2023-03-31T07:48:58.449Z,9.34
2023-03-31T07:49:30.916Z,9.29
2023-03-31T07:50:03.858Z,9.26
2023-03-31T07:50:38.832Z,9.24
2023-03-31T07:51:18.882Z,9.21
2023-03-31T07:51:53.644Z,9.20
2023-03-31T07:52:26.119Z,9.20
2023-03-31T07:52:58.457Z,9.23
2023-03-31T07:53:33.341Z,9.26
2023-03-31T07:54:05.631Z,9.24
2023-03-31T07:54:37.861Z,9.23
2023-03-31T07:55:13.341Z,9.23
2023-03-31T07:55:47.203Z,9.25
2023-03-31T07:56:22.927Z,9.27
2023-03-31T07:56:55.180Z,9.29
2023-03-31T07:57:27.490Z,9.31
2023-03-31T07:58:02.294Z,9.32
2023-03-31T07:58:34.734Z,9.29
2023-03-31T07:59:09.551Z,9.27
2023-03-31T07:59:41.742Z,9.23
2023-03-31T08:00:18.213Z,9.22